sensor_id;sensor_type;location;lat;lon;timestamp;temperature;humidity
30678;DHT22;73746;47.466;8.992;2024-02-21T00:02:03;3.20;99.90
30678;DHT22;73746;47.466;8.992;2024-02-21T00:04:36;3.20;99.90
30678;DHT22;73746;47.466;8.992;2024-02-21T00:07:09;3.10;99.90
30678;DHT22;73746;47.466;8.992;2024-02-21T00:09:42;3.10;99.90
30678;DHT22;73746;47.466;8.992;2024-02-21T00:12:14;3.10;99.90
30678;DHT22;73746;47.466;8.992;2024-02-21T00:14:46;3.10;99.90
30678;DHT22;73746;47.466;8.992;2024-02-21T00:17:18;3.00;99.90
30678;DHT22;73746;47.466;8.992;2024-02-21T00:19:50;3.00;99.90
30678;DHT22;73746;47.466;8.992;2024-02-21T00:22:23;3.00;99.90
30678;DHT22;73746;47.466;8.992;2024-02-21T00:24:55;3.00;99.90
30678;DHT22;73746;47.466;8.992;2024-02-21T00:27:28;3.00;99.90
30678;DHT22;73746;47.466;8.992;2024-02-21T00:30:02;3.00;99.90
30678;DHT22;73746;47.466;8.992;2024-02-21T00:32:34;3.00;99.90
30678;DHT22;73746;47.466;8.992;2024-02-21T00:35:07;3.10;99.90
30678;DHT22;73746;47.466;8.992;2024-02-21T00:40:20;3.00;99.90
30678;DHT22;73746;47.466;8.992;2024-02-21T00:42:53;3.00;99.90
30678;DHT22;73746;47.466;8.992;2024-02-21T00:45:25;2.90;99.90
30678;DHT22;73746;47.466;8.992;2024-02-21T00:47:57;2.90;99.90
30678;DHT22;73746;47.466;8.992;2024-02-21T00:50:29;2.90;99.90
30678;DHT22;73746;47.466;8.992;2024-02-21T00:53:02;2.90;99.90
30678;DHT22;73746;47.466;8.992;2024-02-21T00:55:35;2.90;99.90
30678;DHT22;73746;47.466;8.992;2024-02-21T00:58:07;2.90;99.90
30678;DHT22;73746;47.466;8.992;2024-02-21T01:00:40;2.90;99.90
30678;DHT22;73746;47.466;8.992;2024-02-21T01:03:12;2.80;99.90
30678;DHT22;73746;47.466;8.992;2024-02-21T01:05:45;2.80;99.90
30678;DHT22;73746;47.466;8.992;2024-02-21T01:08:17;2.70;99.90
30678;DHT22;73746;47.466;8.992;2024-02-21T01:10:49;2.70;99.90
30678;DHT22;73746;47.466;8.992;2024-02-21T01:13:22;2.70;99.90
30678;DHT22;73746;47.466;8.992;2024-02-21T01:15:54;2.80;99.90
30678;DHT22;73746;47.466;8.992;2024-02-21T01:18:26;2.90;99.90
30678;DHT22;73746;47.466;8.992;2024-02-21T01:20:59;3.00;99.90
30678;DHT22;73746;47.466;8.992;2024-02-21T01:23:31;3.00;99.90
30678;DHT22;73746;47.466;8.992;2024-02-21T01:26:03;3.00;99.90
30678;DHT22;73746;47.466;8.992;2024-02-21T01:28:36;2.90;99.90
30678;DHT22;73746;47.466;8.992;2024-02-21T01:31:08;2.80;99.90
30678;DHT22;73746;47.466;8.992;2024-02-21T01:33:41;2.80;99.90
30678;DHT22;73746;47.466;8.992;2024-02-21T01:36:13;2.70;99.90
30678;DHT22;73746;47.466;8.992;2024-02-21T01:38:46;2.70;99.90
30678;DHT22;73746;47.466;8.992;2024-02-21T01:41:18;2.70;99.90
30678;DHT22;73746;47.466;8.992;2024-02-21T01:43:50;2.60;99.90
30678;DHT22;73746;47.466;8.992;2024-02-21T01:46:23;2.60;99.90
30678;DHT22;73746;47.466;8.992;2024-02-21T01:48:58;2.50;99.90
30678;DHT22;73746;47.466;8.992;2024-02-21T01:51:31;2.40;99.90
30678;DHT22;73746;47.466;8.992;2024-02-21T01:54:04;2.40;99.90
30678;DHT22;73746;47.466;8.992;2024-02-21T01:56:36;2.40;99.90
30678;DHT22;73746;47.466;8.992;2024-02-21T01:59:08;2.50;99.90
30678;DHT22;73746;47.466;8.992;2024-02-21T02:01:41;2.50;99.90
30678;DHT22;73746;47.466;8.992;2024-02-21T02:04:14;2.50;99.90
30678;DHT22;73746;47.466;8.992;2024-02-21T02:06:46;2.50;99.90
30678;DHT22;73746;47.466;8.992;2024-02-21T02:09:19;2.60;99.90
30678;DHT22;73746;47.466;8.992;2024-02-21T02:11:51;2.60;99.90
30678;DHT22;73746;47.466;8.992;2024-02-21T02:14:24;2.50;99.90
30678;DHT22;73746;47.466;8.992;2024-02-21T02:16:56;2.60;99.90
30678;DHT22;73746;47.466;8.992;2024-02-21T02:19:28;2.60;99.90
30678;DHT22;73746;47.466;8.992;2024-02-21T02:22:05;2.60;99.90
30678;DHT22;73746;47.466;8.992;2024-02-21T02:24:37;2.60;99.90
30678;DHT22;73746;47.466;8.992;2024-02-21T02:27:09;2.70;99.90
30678;DHT22;73746;47.466;8.992;2024-02-21T02:29:42;2.70;99.90
30678;DHT22;73746;47.466;8.992;2024-02-21T02:32:14;2.80;99.90
30678;DHT22;73746;47.466;8.992;2024-02-21T02:34:46;2.90;99.90
30678;DHT22;73746;47.466;8.992;2024-02-21T02:37:18;2.90;99.90
30678;DHT22;73746;47.466;8.992;2024-02-21T02:39:51;2.90;99.90
30678;DHT22;73746;47.466;8.992;2024-02-21T02:42:23;2.90;99.90
30678;DHT22;73746;47.466;8.992;2024-02-21T02:44:55;2.90;99.90
30678;DHT22;73746;47.466;8.992;2024-02-21T02:47:28;2.80;99.90
30678;DHT22;73746;47.466;8.992;2024-02-21T02:50:00;2.70;99.90
30678;DHT22;73746;47.466;8.992;2024-02-21T02:52:32;2.70;99.90
30678;DHT22;73746;47.466;8.992;2024-02-21T02:55:06;2.80;99.90
30678;DHT22;73746;47.466;8.992;2024-02-21T02:57:38;2.80;99.90
30678;DHT22;73746;47.466;8.992;2024-02-21T03:00:14;2.90;99.90
30678;DHT22;73746;47.466;8.992;2024-02-21T03:02:48;3.00;99.90
30678;DHT22;73746;47.466;8.992;2024-02-21T03:05:21;3.00;99.90
30678;DHT22;73746;47.466;8.992;2024-02-21T03:07:54;3.10;99.90
30678;DHT22;73746;47.466;8.992;2024-02-21T03:10:27;3.10;99.90
30678;DHT22;73746;47.466;8.992;2024-02-21T03:12:59;3.00;99.90
30678;DHT22;73746;47.466;8.992;2024-02-21T03:15:31;3.00;99.90
30678;DHT22;73746;47.466;8.992;2024-02-21T03:18:04;3.00;99.90
30678;DHT22;73746;47.466;8.992;2024-02-21T03:20:37;3.00;99.90
30678;DHT22;73746;47.466;8.992;2024-02-21T03:23:10;2.90;99.90
30678;DHT22;73746;47.466;8.992;2024-02-21T03:25:42;2.90;99.90
30678;DHT22;73746;47.466;8.992;2024-02-21T03:28:14;2.90;99.90
30678;DHT22;73746;47.466;8.992;2024-02-21T03:30:47;2.90;99.90
30678;DHT22;73746;47.466;8.992;2024-02-21T03:33:19;2.90;99.90
30678;DHT22;73746;47.466;8.992;2024-02-21T03:35:53;2.80;99.90
30678;DHT22;73746;47.466;8.992;2024-02-21T03:38:25;2.80;99.90
30678;DHT22;73746;47.466;8.992;2024-02-21T03:40:57;2.80;99.90
30678;DHT22;73746;47.466;8.992;2024-02-21T03:43:30;2.90;99.90
30678;DHT22;73746;47.466;8.992;2024-02-21T03:46:02;3.00;99.90
30678;DHT22;73746;47.466;8.992;2024-02-21T03:48:34;3.10;99.90
30678;DHT22;73746;47.466;8.992;2024-02-21T03:51:06;3.10;99.90
30678;DHT22;73746;47.466;8.992;2024-02-21T03:53:38;3.00;99.90
30678;DHT22;73746;47.466;8.992;2024-02-21T03:56:10;3.00;99.90
30678;DHT22;73746;47.466;8.992;2024-02-21T03:58:43;2.90;99.90
30678;DHT22;73746;47.466;8.992;2024-02-21T04:01:16;2.90;99.90
30678;DHT22;73746;47.466;8.992;2024-02-21T04:03:49;2.90;99.90
30678;DHT22;73746;47.466;8.992;2024-02-21T04:06:21;2.90;99.90
30678;DHT22;73746;47.466;8.992;2024-02-21T04:08:53;2.90;99.90
30678;DHT22;73746;47.466;8.992;2024-02-21T04:11:25;2.90;99.90
30678;DHT22;73746;47.466;8.992;2024-02-21T04:13:57;2.90;99.90
30678;DHT22;73746;47.466;8.992;2024-02-21T04:16:29;3.00;99.90
30678;DHT22;73746;47.466;8.992;2024-02-21T04:19:02;3.10;99.90
30678;DHT22;73746;47.466;8.992;2024-02-21T04:21:35;3.10;99.90
30678;DHT22;73746;47.466;8.992;2024-02-21T04:24:07;3.10;99.90
30678;DHT22;73746;47.466;8.992;2024-02-21T04:26:39;3.20;99.90
30678;DHT22;73746;47.466;8.992;2024-02-21T04:29:12;3.20;99.90
30678;DHT22;73746;47.466;8.992;2024-02-21T04:31:44;3.10;99.90
30678;DHT22;73746;47.466;8.992;2024-02-21T04:34:17;3.10;99.90
30678;DHT22;73746;47.466;8.992;2024-02-21T04:36:49;3.10;99.90
30678;DHT22;73746;47.466;8.992;2024-02-21T04:39:21;3.00;99.90
30678;DHT22;73746;47.466;8.992;2024-02-21T04:41:53;3.00;99.90
30678;DHT22;73746;47.466;8.992;2024-02-21T04:44:25;3.00;99.90
30678;DHT22;73746;47.466;8.992;2024-02-21T04:46:58;3.00;99.90
30678;DHT22;73746;47.466;8.992;2024-02-21T04:49:30;2.90;99.90
30678;DHT22;73746;47.466;8.992;2024-02-21T04:52:03;2.90;99.90
30678;DHT22;73746;47.466;8.992;2024-02-21T04:54:35;2.90;99.90
30678;DHT22;73746;47.466;8.992;2024-02-21T04:57:07;3.00;99.90
30678;DHT22;73746;47.466;8.992;2024-02-21T04:59:41;2.90;99.90
30678;DHT22;73746;47.466;8.992;2024-02-21T05:02:13;3.00;99.90
30678;DHT22;73746;47.466;8.992;2024-02-21T05:04:45;2.90;99.90
30678;DHT22;73746;47.466;8.992;2024-02-21T05:07:18;3.00;99.90
30678;DHT22;73746;47.466;8.992;2024-02-21T05:09:50;3.00;99.90
30678;DHT22;73746;47.466;8.992;2024-02-21T05:12:22;3.00;99.90
30678;DHT22;73746;47.466;8.992;2024-02-21T05:14:54;3.00;99.90
30678;DHT22;73746;47.466;8.992;2024-02-21T05:17:27;3.00;99.90
30678;DHT22;73746;47.466;8.992;2024-02-21T05:19:59;3.00;99.90
30678;DHT22;73746;47.466;8.992;2024-02-21T05:22:32;3.00;99.90
30678;DHT22;73746;47.466;8.992;2024-02-21T05:25:05;3.00;99.90
30678;DHT22;73746;47.466;8.992;2024-02-21T05:27:37;3.00;99.90
30678;DHT22;73746;47.466;8.992;2024-02-21T05:30:11;3.00;99.90
30678;DHT22;73746;47.466;8.992;2024-02-21T05:32:44;3.00;99.90
30678;DHT22;73746;47.466;8.992;2024-02-21T05:35:16;3.10;99.90
30678;DHT22;73746;47.466;8.992;2024-02-21T05:37:48;3.10;99.90
30678;DHT22;73746;47.466;8.992;2024-02-21T05:40:22;3.10;99.90
30678;DHT22;73746;47.466;8.992;2024-02-21T05:42:55;3.00;99.90
30678;DHT22;73746;47.466;8.992;2024-02-21T05:45:28;3.00;99.90
30678;DHT22;73746;47.466;8.992;2024-02-21T05:48:00;2.90;99.90
30678;DHT22;73746;47.466;8.992;2024-02-21T05:50:33;2.90;99.90
30678;DHT22;73746;47.466;8.992;2024-02-21T05:53:05;2.80;99.90
30678;DHT22;73746;47.466;8.992;2024-02-21T05:55:38;2.80;99.90
30678;DHT22;73746;47.466;8.992;2024-02-21T05:58:11;2.70;99.90
30678;DHT22;73746;47.466;8.992;2024-02-21T06:00:44;2.70;99.90
30678;DHT22;73746;47.466;8.992;2024-02-21T06:03:16;2.70;99.90
30678;DHT22;73746;47.466;8.992;2024-02-21T06:05:49;2.80;99.90
30678;DHT22;73746;47.466;8.992;2024-02-21T06:08:21;2.90;99.90
30678;DHT22;73746;47.466;8.992;2024-02-21T06:10:53;2.90;99.90
30678;DHT22;73746;47.466;8.992;2024-02-21T06:13:26;2.90;99.90
30678;DHT22;73746;47.466;8.992;2024-02-21T06:15:58;3.00;99.90
30678;DHT22;73746;47.466;8.992;2024-02-21T06:18:30;3.00;99.90
30678;DHT22;73746;47.466;8.992;2024-02-21T06:21:03;3.10;99.90
30678;DHT22;73746;47.466;8.992;2024-02-21T06:23:36;3.10;99.90
30678;DHT22;73746;47.466;8.992;2024-02-21T06:26:08;3.10;99.90
30678;DHT22;73746;47.466;8.992;2024-02-21T06:28:41;3.00;99.90
30678;DHT22;73746;47.466;8.992;2024-02-21T06:31:13;3.10;99.90
30678;DHT22;73746;47.466;8.992;2024-02-21T06:33:46;3.10;99.90
30678;DHT22;73746;47.466;8.992;2024-02-21T06:36:19;3.20;99.90
30678;DHT22;73746;47.466;8.992;2024-02-21T06:38:51;3.20;99.90
30678;DHT22;73746;47.466;8.992;2024-02-21T06:41:23;3.20;99.90
30678;DHT22;73746;47.466;8.992;2024-02-21T06:43:55;3.30;99.90
30678;DHT22;73746;47.466;8.992;2024-02-21T06:46:28;3.30;99.90
30678;DHT22;73746;47.466;8.992;2024-02-21T06:49:03;3.20;99.90
30678;DHT22;73746;47.466;8.992;2024-02-21T06:51:35;3.20;99.90
30678;DHT22;73746;47.466;8.992;2024-02-21T06:54:08;3.20;99.90
30678;DHT22;73746;47.466;8.992;2024-02-21T06:56:41;3.30;99.90
30678;DHT22;73746;47.466;8.992;2024-02-21T06:59:13;3.30;99.90
30678;DHT22;73746;47.466;8.992;2024-02-21T07:01:47;3.30;99.90
30678;DHT22;73746;47.466;8.992;2024-02-21T07:04:20;3.40;99.90
30678;DHT22;73746;47.466;8.992;2024-02-21T07:06:52;3.40;99.90
30678;DHT22;73746;47.466;8.992;2024-02-21T07:09:24;3.50;99.90
30678;DHT22;73746;47.466;8.992;2024-02-21T07:11:56;3.50;99.90
30678;DHT22;73746;47.466;8.992;2024-02-21T07:14:29;3.60;99.90
30678;DHT22;73746;47.466;8.992;2024-02-21T07:17:02;3.70;99.90
30678;DHT22;73746;47.466;8.992;2024-02-21T07:19:34;3.80;99.90
30678;DHT22;73746;47.466;8.992;2024-02-21T07:22:07;4.10;99.90
30678;DHT22;73746;47.466;8.992;2024-02-21T07:24:39;4.30;99.90
30678;DHT22;73746;47.466;8.992;2024-02-21T07:27:13;4.60;99.90
30678;DHT22;73746;47.466;8.992;2024-02-21T07:29:45;4.90;99.90
30678;DHT22;73746;47.466;8.992;2024-02-21T07:32:19;5.20;99.90
30678;DHT22;73746;47.466;8.992;2024-02-21T07:34:51;5.40;99.90
30678;DHT22;73746;47.466;8.992;2024-02-21T07:37:23;5.70;99.90
30678;DHT22;73746;47.466;8.992;2024-02-21T07:39:56;5.90;99.90
30678;DHT22;73746;47.466;8.992;2024-02-21T07:42:28;6.10;99.90
30678;DHT22;73746;47.466;8.992;2024-02-21T07:45:00;6.20;99.90
30678;DHT22;73746;47.466;8.992;2024-02-21T07:47:34;6.30;99.90
30678;DHT22;73746;47.466;8.992;2024-02-21T07:50:08;6.50;99.90
30678;DHT22;73746;47.466;8.992;2024-02-21T07:52:41;6.60;99.90
30678;DHT22;73746;47.466;8.992;2024-02-21T07:55:13;6.70;99.90
30678;DHT22;73746;47.466;8.992;2024-02-21T07:57:46;6.90;99.90
30678;DHT22;73746;47.466;8.992;2024-02-21T08:00:20;7.10;99.90
30678;DHT22;73746;47.466;8.992;2024-02-21T08:02:52;7.30;99.90
30678;DHT22;73746;47.466;8.992;2024-02-21T08:05:24;7.50;99.90
30678;DHT22;73746;47.466;8.992;2024-02-21T08:07:56;7.70;99.90
30678;DHT22;73746;47.466;8.992;2024-02-21T08:10:28;7.70;99.90
30678;DHT22;73746;47.466;8.992;2024-02-21T08:13:00;7.90;99.90
30678;DHT22;73746;47.466;8.992;2024-02-21T08:15:33;8.00;99.90
30678;DHT22;73746;47.466;8.992;2024-02-21T08:18:07;8.10;99.90
30678;DHT22;73746;47.466;8.992;2024-02-21T08:20:39;8.00;99.90
30678;DHT22;73746;47.466;8.992;2024-02-21T08:23:11;8.00;99.90
30678;DHT22;73746;47.466;8.992;2024-02-21T08:25:43;8.00;99.90
30678;DHT22;73746;47.466;8.992;2024-02-21T08:28:15;8.00;99.90
30678;DHT22;73746;47.466;8.992;2024-02-21T08:30:48;8.00;99.90
30678;DHT22;73746;47.466;8.992;2024-02-21T08:33:20;8.00;99.90
30678;DHT22;73746;47.466;8.992;2024-02-21T08:35:54;8.00;99.90
30678;DHT22;73746;47.466;8.992;2024-02-21T08:38:26;8.00;99.90
30678;DHT22;73746;47.466;8.992;2024-02-21T08:40:58;8.00;99.90
30678;DHT22;73746;47.466;8.992;2024-02-21T08:43:31;8.00;99.90
30678;DHT22;73746;47.466;8.992;2024-02-21T08:46:04;8.10;99.90
30678;DHT22;73746;47.466;8.992;2024-02-21T08:48:36;8.10;99.90
30678;DHT22;73746;47.466;8.992;2024-02-21T08:51:08;8.20;99.90
30678;DHT22;73746;47.466;8.992;2024-02-21T08:53:44;8.30;99.90
30678;DHT22;73746;47.466;8.992;2024-02-21T08:56:17;8.30;99.90
30678;DHT22;73746;47.466;8.992;2024-02-21T08:59:59;8.40;99.90
30678;DHT22;73746;47.466;8.992;2024-02-21T09:05:11;8.70;99.90
30678;DHT22;73746;47.466;8.992;2024-02-21T09:07:43;8.80;99.90
30678;DHT22;73746;47.466;8.992;2024-02-21T09:10:16;8.90;99.90
30678;DHT22;73746;47.466;8.992;2024-02-21T09:12:48;9.00;99.90
30678;DHT22;73746;47.466;8.992;2024-02-21T09:15:21;9.00;99.90
30678;DHT22;73746;47.466;8.992;2024-02-21T09:17:55;9.00;99.90
30678;DHT22;73746;47.466;8.992;2024-02-21T09:20:27;9.10;99.90
30678;DHT22;73746;47.466;8.992;2024-02-21T09:23:00;9.20;99.90
30678;DHT22;73746;47.466;8.992;2024-02-21T09:25:32;9.20;99.90
30678;DHT22;73746;47.466;8.992;2024-02-21T09:28:05;9.20;99.90
30678;DHT22;73746;47.466;8.992;2024-02-21T09:30:37;9.20;99.90
30678;DHT22;73746;47.466;8.992;2024-02-21T09:33:10;9.30;99.90
30678;DHT22;73746;47.466;8.992;2024-02-21T09:35:43;9.40;99.90
30678;DHT22;73746;47.466;8.992;2024-02-21T09:38:16;9.50;99.90
30678;DHT22;73746;47.466;8.992;2024-02-21T09:40:52;9.50;99.90
30678;DHT22;73746;47.466;8.992;2024-02-21T09:43:26;9.70;99.90
30678;DHT22;73746;47.466;8.992;2024-02-21T09:45:59;9.70;99.90
30678;DHT22;73746;47.466;8.992;2024-02-21T09:48:38;9.70;99.90
30678;DHT22;73746;47.466;8.992;2024-02-21T09:51:11;9.80;99.90
30678;DHT22;73746;47.466;8.992;2024-02-21T09:53:44;9.80;99.90
30678;DHT22;73746;47.466;8.992;2024-02-21T09:56:17;9.80;99.90
30678;DHT22;73746;47.466;8.992;2024-02-21T09:58:49;9.90;99.90
30678;DHT22;73746;47.466;8.992;2024-02-21T10:01:22;10.00;99.90
30678;DHT22;73746;47.466;8.992;2024-02-21T10:03:56;10.30;99.90
30678;DHT22;73746;47.466;8.992;2024-02-21T10:06:29;10.50;99.90
30678;DHT22;73746;47.466;8.992;2024-02-21T10:09:40;10.70;99.90
30678;DHT22;73746;47.466;8.992;2024-02-21T10:12:13;10.80;99.90
30678;DHT22;73746;47.466;8.992;2024-02-21T10:14:47;11.00;99.90
30678;DHT22;73746;47.466;8.992;2024-02-21T10:17:19;11.10;99.90
30678;DHT22;73746;47.466;8.992;2024-02-21T10:19:51;11.40;99.90
30678;DHT22;73746;47.466;8.992;2024-02-21T10:22:23;11.60;99.90
30678;DHT22;73746;47.466;8.992;2024-02-21T10:25:06;11.90;99.90
30678;DHT22;73746;47.466;8.992;2024-02-21T10:27:30;12.10;99.90
30678;DHT22;73746;47.466;8.992;2024-02-21T10:30:02;12.30;99.90
30678;DHT22;73746;47.466;8.992;2024-02-21T10:32:35;12.40;99.90
30678;DHT22;73746;47.466;8.992;2024-02-21T10:37:16;12.60;99.90
30678;DHT22;73746;47.466;8.992;2024-02-21T10:39:49;12.80;99.90
30678;DHT22;73746;47.466;8.992;2024-02-21T10:42:22;12.90;99.90
30678;DHT22;73746;47.466;8.992;2024-02-21T10:45:00;13.00;99.90
30678;DHT22;73746;47.466;8.992;2024-02-21T10:47:32;13.20;99.90
30678;DHT22;73746;47.466;8.992;2024-02-21T10:50:09;13.30;99.90
30678;DHT22;73746;47.466;8.992;2024-02-21T10:52:48;13.50;99.90
30678;DHT22;73746;47.466;8.992;2024-02-21T10:55:26;13.60;99.90
30678;DHT22;73746;47.466;8.992;2024-02-21T10:57:57;13.80;99.90
30678;DHT22;73746;47.466;8.992;2024-02-21T11:00:30;13.90;99.90
30678;DHT22;73746;47.466;8.992;2024-02-21T11:03:04;14.00;99.90
30678;DHT22;73746;47.466;8.992;2024-02-21T11:05:36;14.20;99.90
30678;DHT22;73746;47.466;8.992;2024-02-21T11:08:09;14.20;99.90
30678;DHT22;73746;47.466;8.992;2024-02-21T11:10:45;14.30;99.90
30678;DHT22;73746;47.466;8.992;2024-02-21T11:13:16;14.40;99.90
30678;DHT22;73746;47.466;8.992;2024-02-21T11:15:48;14.40;99.90
30678;DHT22;73746;47.466;8.992;2024-02-21T11:18:27;14.40;99.90
30678;DHT22;73746;47.466;8.992;2024-02-21T11:20:59;14.50;99.90
30678;DHT22;73746;47.466;8.992;2024-02-21T11:23:31;14.60;99.90
30678;DHT22;73746;47.466;8.992;2024-02-21T11:26:08;14.60;99.90
30678;DHT22;73746;47.466;8.992;2024-02-21T11:28:41;14.70;99.90
30678;DHT22;73746;47.466;8.992;2024-02-21T11:31:43;14.80;99.90
30678;DHT22;73746;47.466;8.992;2024-02-21T11:34:18;14.80;99.90
30678;DHT22;73746;47.466;8.992;2024-02-21T11:36:51;14.70;99.90
30678;DHT22;73746;47.466;8.992;2024-02-21T11:39:25;14.80;98.50
30678;DHT22;73746;47.466;8.992;2024-02-21T11:42:05;14.80;97.60
30678;DHT22;73746;47.466;8.992;2024-02-21T11:44:39;14.70;98.70
30678;DHT22;73746;47.466;8.992;2024-02-21T11:47:15;14.80;97.90
30678;DHT22;73746;47.466;8.992;2024-02-21T11:49:48;14.80;97.00
30678;DHT22;73746;47.466;8.992;2024-02-21T11:52:24;14.90;96.70
30678;DHT22;73746;47.466;8.992;2024-02-21T11:54:57;14.90;95.10
30678;DHT22;73746;47.466;8.992;2024-02-21T11:57:31;14.80;95.70
30678;DHT22;73746;47.466;8.992;2024-02-21T12:00:14;15.00;94.20
30678;DHT22;73746;47.466;8.992;2024-02-21T12:02:47;15.00;96.20
30678;DHT22;73746;47.466;8.992;2024-02-21T12:05:24;15.00;94.30
30678;DHT22;73746;47.466;8.992;2024-02-21T12:08:00;14.90;94.80
30678;DHT22;73746;47.466;8.992;2024-02-21T12:10:34;14.90;94.20
30678;DHT22;73746;47.466;8.992;2024-02-21T12:13:08;14.90;94.70
30678;DHT22;73746;47.466;8.992;2024-02-21T12:15:40;14.90;95.40
30678;DHT22;73746;47.466;8.992;2024-02-21T12:18:12;15.20;94.50
30678;DHT22;73746;47.466;8.992;2024-02-21T12:20:44;15.30;95.20
30678;DHT22;73746;47.466;8.992;2024-02-21T12:23:20;15.50;93.60
30678;DHT22;73746;47.466;8.992;2024-02-21T12:25:53;15.60;93.40
30678;DHT22;73746;47.466;8.992;2024-02-21T12:28:25;15.70;93.50
30678;DHT22;73746;47.466;8.992;2024-02-21T12:30:58;15.80;93.10
30678;DHT22;73746;47.466;8.992;2024-02-21T12:33:30;15.90;92.90
30678;DHT22;73746;47.466;8.992;2024-02-21T12:36:05;15.90;92.30
30678;DHT22;73746;47.466;8.992;2024-02-21T12:38:37;15.80;92.50
30678;DHT22;73746;47.466;8.992;2024-02-21T12:41:10;15.80;92.10
30678;DHT22;73746;47.466;8.992;2024-02-21T12:43:42;15.70;92.30
30678;DHT22;73746;47.466;8.992;2024-02-21T12:46:14;15.70;91.90
30678;DHT22;73746;47.466;8.992;2024-02-21T12:48:46;15.80;92.10
30678;DHT22;73746;47.466;8.992;2024-02-21T12:51:18;15.70;91.70
30678;DHT22;73746;47.466;8.992;2024-02-21T12:53:51;15.60;90.50
30678;DHT22;73746;47.466;8.992;2024-02-21T12:56:23;15.50;90.60
30678;DHT22;73746;47.466;8.992;2024-02-21T12:58:56;15.40;90.60
30678;DHT22;73746;47.466;8.992;2024-02-21T13:01:29;15.40;90.40
30678;DHT22;73746;47.466;8.992;2024-02-21T13:06:41;15.20;91.10
30678;DHT22;73746;47.466;8.992;2024-02-21T13:09:15;15.00;91.80
30678;DHT22;73746;47.466;8.992;2024-02-21T13:11:46;14.90;92.40
30678;DHT22;73746;47.466;8.992;2024-02-21T13:14:19;14.90;92.70
30678;DHT22;73746;47.466;8.992;2024-02-21T13:16:53;14.80;92.30
30678;DHT22;73746;47.466;8.992;2024-02-21T13:19:25;14.80;93.10
30678;DHT22;73746;47.466;8.992;2024-02-21T13:21:57;14.80;93.20
30678;DHT22;73746;47.466;8.992;2024-02-21T13:24:30;14.80;93.50
30678;DHT22;73746;47.466;8.992;2024-02-21T13:27:02;14.80;92.10
30678;DHT22;73746;47.466;8.992;2024-02-21T13:29:34;14.90;92.40
30678;DHT22;73746;47.466;8.992;2024-02-21T13:32:07;14.90;92.70
30678;DHT22;73746;47.466;8.992;2024-02-21T13:34:40;15.00;93.20
30678;DHT22;73746;47.466;8.992;2024-02-21T13:37:13;15.00;91.60
30678;DHT22;73746;47.466;8.992;2024-02-21T13:39:45;15.10;90.90
30678;DHT22;73746;47.466;8.992;2024-02-21T13:42:17;15.10;91.70
30678;DHT22;73746;47.466;8.992;2024-02-21T13:44:50;15.20;92.10
30678;DHT22;73746;47.466;8.992;2024-02-21T13:47:22;15.30;91.40
30678;DHT22;73746;47.466;8.992;2024-02-21T13:49:54;15.60;90.90
30678;DHT22;73746;47.466;8.992;2024-02-21T13:52:26;15.60;90.40
30678;DHT22;73746;47.466;8.992;2024-02-21T13:54:58;15.70;90.20
30678;DHT22;73746;47.466;8.992;2024-02-21T13:57:30;15.80;90.80
30678;DHT22;73746;47.466;8.992;2024-02-21T14:00:03;16.00;90.00
30678;DHT22;73746;47.466;8.992;2024-02-21T14:02:35;16.20;90.10
30678;DHT22;73746;47.466;8.992;2024-02-21T14:06:55;16.50;90.60
30678;DHT22;73746;47.466;8.992;2024-02-21T14:09:27;16.70;90.60
30678;DHT22;73746;47.466;8.992;2024-02-21T14:12:01;16.80;88.10
30678;DHT22;73746;47.466;8.992;2024-02-21T14:14:34;16.90;88.90
30678;DHT22;73746;47.466;8.992;2024-02-21T14:17:08;16.90;90.00
30678;DHT22;73746;47.466;8.992;2024-02-21T14:19:40;17.00;88.70
30678;DHT22;73746;47.466;8.992;2024-02-21T14:22:13;16.80;89.80
30678;DHT22;73746;47.466;8.992;2024-02-21T14:24:46;16.90;90.00
30678;DHT22;73746;47.466;8.992;2024-02-21T14:27:18;16.90;88.70
30678;DHT22;73746;47.466;8.992;2024-02-21T14:29:50;16.90;89.80
30678;DHT22;73746;47.466;8.992;2024-02-21T14:32:22;16.70;89.70
30678;DHT22;73746;47.466;8.992;2024-02-21T14:34:54;16.50;90.40
30678;DHT22;73746;47.466;8.992;2024-02-21T14:37:27;16.10;90.60
30678;DHT22;73746;47.466;8.992;2024-02-21T14:39:59;15.80;91.50
30678;DHT22;73746;47.466;8.992;2024-02-21T14:42:31;15.50;92.40
30678;DHT22;73746;47.466;8.992;2024-02-21T14:45:07;15.20;93.10
30678;DHT22;73746;47.466;8.992;2024-02-21T14:47:39;15.00;93.10
30678;DHT22;73746;47.466;8.992;2024-02-21T14:50:12;14.80;94.90
30678;DHT22;73746;47.466;8.992;2024-02-21T14:52:44;14.80;93.70
30678;DHT22;73746;47.466;8.992;2024-02-21T14:55:16;14.60;94.00
30678;DHT22;73746;47.466;8.992;2024-02-21T14:57:48;14.50;94.10
30678;DHT22;73746;47.466;8.992;2024-02-21T15:00:21;14.40;93.50
30678;DHT22;73746;47.466;8.992;2024-02-21T15:02:55;14.30;94.50
30678;DHT22;73746;47.466;8.992;2024-02-21T15:05:27;14.20;93.80
30678;DHT22;73746;47.466;8.992;2024-02-21T15:08:00;14.10;94.50
30678;DHT22;73746;47.466;8.992;2024-02-21T15:10:33;14.10;94.20
30678;DHT22;73746;47.466;8.992;2024-02-21T15:13:05;13.90;94.20
30678;DHT22;73746;47.466;8.992;2024-02-21T15:15:37;13.90;95.20
30678;DHT22;73746;47.466;8.992;2024-02-21T15:18:09;14.00;94.80
30678;DHT22;73746;47.466;8.992;2024-02-21T15:20:42;14.10;94.90
30678;DHT22;73746;47.466;8.992;2024-02-21T15:23:14;14.10;94.10
30678;DHT22;73746;47.466;8.992;2024-02-21T15:25:47;14.10;94.90
30678;DHT22;73746;47.466;8.992;2024-02-21T15:28:19;14.10;95.60
30678;DHT22;73746;47.466;8.992;2024-02-21T15:30:51;14.00;95.50
30678;DHT22;73746;47.466;8.992;2024-02-21T15:33:23;14.00;95.60
30678;DHT22;73746;47.466;8.992;2024-02-21T15:35:57;14.00;95.20
30678;DHT22;73746;47.466;8.992;2024-02-21T15:38:29;13.90;95.20
30678;DHT22;73746;47.466;8.992;2024-02-21T15:41:01;13.80;95.20
30678;DHT22;73746;47.466;8.992;2024-02-21T15:43:34;13.90;95.70
30678;DHT22;73746;47.466;8.992;2024-02-21T15:46:08;13.80;95.70
30678;DHT22;73746;47.466;8.992;2024-02-21T15:48:41;13.70;96.20
30678;DHT22;73746;47.466;8.992;2024-02-21T15:51:14;13.80;96.60
30678;DHT22;73746;47.466;8.992;2024-02-21T15:53:46;13.70;96.40
30678;DHT22;73746;47.466;8.992;2024-02-21T15:56:18;13.60;96.70
30678;DHT22;73746;47.466;8.992;2024-02-21T15:58:51;13.40;96.90
30678;DHT22;73746;47.466;8.992;2024-02-21T16:01:23;13.30;97.30
30678;DHT22;73746;47.466;8.992;2024-02-21T16:03:56;13.10;97.40
30678;DHT22;73746;47.466;8.992;2024-02-21T16:06:29;13.00;97.70
30678;DHT22;73746;47.466;8.992;2024-02-21T16:09:02;12.80;97.90
30678;DHT22;73746;47.466;8.992;2024-02-21T16:11:36;12.60;98.40
30678;DHT22;73746;47.466;8.992;2024-02-21T16:14:09;12.50;99.00
30678;DHT22;73746;47.466;8.992;2024-02-21T16:16:41;12.40;99.00
30678;DHT22;73746;47.466;8.992;2024-02-21T16:19:16;12.30;99.00
30678;DHT22;73746;47.466;8.992;2024-02-21T16:21:48;12.10;99.20
30678;DHT22;73746;47.466;8.992;2024-02-21T16:24:20;12.10;99.50
30678;DHT22;73746;47.466;8.992;2024-02-21T16:26:53;12.10;99.80
30678;DHT22;73746;47.466;8.992;2024-02-21T16:29:25;12.00;99.90